createdAt,value
2019-04-04T00:00:26.121Z,3.50
2019-04-04T00:03:29.580Z,3.53
2019-04-04T00:06:33.033Z,3.33
2019-04-04T00:09:36.470Z,3.40
2019-04-04T00:12:39.927Z,3.80
2019-04-04T00:15:45.385Z,3.97
2019-04-04T00:18:48.525Z,4.30
2019-04-04T00:21:51.979Z,4.13
2019-04-04T00:24:55.400Z,4.50
2019-04-04T00:27:58.851Z,4.27
2019-04-04T00:31:02.300Z,4.80
2019-04-04T00:34:05.767Z,8.13
2019-04-04T00:37:09.269Z,6.10
2019-04-04T00:40:13.392Z,6.00
2019-04-04T00:43:16.904Z,5.47
2019-04-04T00:46:20.336Z,5.13
2019-04-04T00:49:23.793Z,4.67
2019-04-04T00:52:27.216Z,4.80
2019-04-04T00:55:30.666Z,5.50
2019-04-04T00:58:34.127Z,5.13
2019-04-04T01:01:37.561Z,4.97
2019-04-04T01:04:41.017Z,5.20
2019-04-04T01:07:44.448Z,5.77
2019-04-04T01:10:49.502Z,5.57
2019-04-04T01:13:53.093Z,5.47
2019-04-04T01:16:56.533Z,6.17
2019-04-04T01:19:59.981Z,5.83
2019-04-04T01:23:03.413Z,6.20
2019-04-04T01:26:06.867Z,6.23
2019-04-04T01:29:11.095Z,6.10
2019-04-04T01:32:15.149Z,6.27
2019-04-04T01:35:22.530Z,5.87
2019-04-04T01:38:25.135Z,7.30
2019-04-04T01:41:28.610Z,7.13
2019-04-04T01:44:32.024Z,6.73
2019-04-04T01:47:35.486Z,7.27
2019-04-04T01:50:38.956Z,6.67
2019-04-04T01:53:42.414Z,7.97
2019-04-04T01:56:45.853Z,6.87
2019-04-04T01:59:49.313Z,7.63
2019-04-04T02:02:52.790Z,8.10
2019-04-04T02:05:58.135Z,7.87
2019-04-04T02:09:02.818Z,9.37
2019-04-04T02:12:07.994Z,8.40
2019-04-04T02:15:13.805Z,7.83
2019-04-04T02:18:17.078Z,8.67
2019-04-04T02:21:20.537Z,8.17
2019-04-04T02:24:24.065Z,8.30
2019-04-04T02:27:27.527Z,7.60
2019-04-04T02:30:30.991Z,8.07
2019-04-04T02:33:34.515Z,8.57
2019-04-04T02:36:37.942Z,9.17
2019-04-04T02:39:41.419Z,8.30
2019-04-04T02:42:44.943Z,8.70
2019-04-04T02:45:48.380Z,8.80
2019-04-04T02:48:53.584Z,8.77
2019-04-04T02:51:57.085Z,8.93
2019-04-04T02:55:00.570Z,8.93
2019-04-04T02:58:04.226Z,10.60
2019-04-04T03:01:07.700Z,10.77
2019-04-04T03:04:13.666Z,10.13
2019-04-04T03:07:16.344Z,9.17
2019-04-04T03:10:19.771Z,9.73
2019-04-04T03:13:23.234Z,9.63
2019-04-04T03:16:26.666Z,9.53
2019-04-04T03:19:30.139Z,10.07
2019-04-04T03:22:33.578Z,8.90
2019-04-04T03:25:37.051Z,10.87
2019-04-04T03:28:40.562Z,10.57
2019-04-04T03:31:44.029Z,10.83
2019-04-04T03:34:49.834Z,10.97
2019-04-04T03:37:52.651Z,11.33
2019-04-04T03:40:58.090Z,11.03
2019-04-04T03:44:01.387Z,10.80
2019-04-04T03:47:04.854Z,12.53
2019-04-04T03:50:08.316Z,11.70
2019-04-04T03:53:16.315Z,13.03
2019-04-04T03:56:16.942Z,11.80
2019-04-04T03:59:20.407Z,12.93
2019-04-04T04:02:23.885Z,13.17
2019-04-04T04:05:34.292Z,13.20
2019-04-04T04:08:36.206Z,12.10
2019-04-04T04:11:39.663Z,11.63
2019-04-04T04:14:43.205Z,13.30
2019-04-04T04:17:46.670Z,11.70
2019-04-04T04:20:50.206Z,11.07
2019-04-04T04:23:56.772Z,10.83
2019-04-04T04:26:58.847Z,10.80
2019-04-04T04:30:05.933Z,10.67
2019-04-04T04:33:07.491Z,12.73
2019-04-04T04:36:15.360Z,13.90
2019-04-04T04:39:16.106Z,11.07
2019-04-04T04:42:21.267Z,9.40
2019-04-04T04:45:24.767Z,11.67
2019-04-04T04:48:30.926Z,19.67
2019-04-04T04:51:33.477Z,10.87
2019-04-04T04:54:36.936Z,10.07
2019-04-04T04:57:40.554Z,10.10
2019-04-04T05:00:46.950Z,10.10
2019-04-04T05:03:50.694Z,9.70
2019-04-04T05:06:54.597Z,9.40
2019-04-04T05:09:58.037Z,9.47
2019-04-04T05:13:01.520Z,10.20
2019-04-04T05:16:08.570Z,10.90
2019-04-04T05:19:10.418Z,10.70
2019-04-04T05:22:13.867Z,9.87
2019-04-04T05:25:17.325Z,10.20
2019-04-04T05:28:20.783Z,10.47
2019-04-04T05:31:24.245Z,10.83
2019-04-04T05:34:28.277Z,9.73
2019-04-04T05:37:32.894Z,10.60
2019-04-04T05:40:36.330Z,10.70
2019-04-04T05:43:39.838Z,12.00
2019-04-04T05:46:43.299Z,11.10
2019-04-04T05:49:46.773Z,11.23
2019-04-04T05:52:50.277Z,11.17
2019-04-04T05:55:53.737Z,11.23
2019-04-04T05:58:57.206Z,12.23
2019-04-04T06:02:00.666Z,11.27
2019-04-04T06:05:05.965Z,12.97
2019-04-04T06:08:09.462Z,11.13
2019-04-04T06:11:12.941Z,11.13
2019-04-04T06:14:16.377Z,11.83
2019-04-04T06:17:19.845Z,12.07
2019-04-04T06:20:23.290Z,11.80
2019-04-04T06:23:26.754Z,11.57
2019-04-04T06:26:30.270Z,10.83
2019-04-04T06:29:33.729Z,10.37
2019-04-04T06:32:38.874Z,10.60
2019-04-04T06:35:42.366Z,10.17
2019-04-04T06:38:45.835Z,9.80
2019-04-04T06:41:49.273Z,10.83
2019-04-04T06:44:54.210Z,10.80
2019-04-04T06:47:58.276Z,9.80
2019-04-04T06:51:02.022Z,10.70
2019-04-04T06:54:05.542Z,10.67
2019-04-04T06:57:08.993Z,10.67
2019-04-04T07:00:15.538Z,10.70
2019-04-04T07:03:17.961Z,10.70
2019-04-04T07:06:21.479Z,10.87
2019-04-04T07:09:24.958Z,11.10
2019-04-04T07:12:28.751Z,11.83
2019-04-04T07:15:32.320Z,11.27
2019-04-04T07:18:35.789Z,10.10
2019-04-04T07:21:39.225Z,11.80
2019-04-04T07:24:42.693Z,11.40
2019-04-04T07:27:47.411Z,11.30
2019-04-04T07:30:54.370Z,11.43
2019-04-04T07:33:56.501Z,11.60
2019-04-04T07:36:59.975Z,11.70
2019-04-04T07:40:04.612Z,11.87
2019-04-04T07:43:08.690Z,12.13
2019-04-04T07:46:16.670Z,12.10
2019-04-04T07:49:17.638Z,10.90
2019-04-04T07:52:21.145Z,10.83
2019-04-04T07:55:24.617Z,12.50
2019-04-04T07:58:28.075Z,12.63
2019-04-04T08:01:31.525Z,12.13
2019-04-04T08:04:35.048Z,12.93
2019-04-04T08:07:38.517Z,13.83
2019-04-04T08:10:42.013Z,13.00
2019-04-04T08:13:45.452Z,12.60
2019-04-04T08:16:48.917Z,11.33
2019-04-04T08:19:59.736Z,11.30
2019-04-04T08:22:57.541Z,11.87
2019-04-04T08:26:00.991Z,10.27
2019-04-04T08:29:04.719Z,10.43
2019-04-04T08:32:08.155Z,12.97
2019-04-04T08:35:11.801Z,12.43
2019-04-04T08:38:15.240Z,12.33
2019-04-04T08:41:18.703Z,13.33
2019-04-04T08:44:22.149Z,11.37
2019-04-04T08:47:25.618Z,12.83
2019-04-04T08:50:29.357Z,13.50
2019-04-04T08:53:39.875Z,13.20
2019-04-04T08:56:37.998Z,11.73
2019-04-04T08:59:41.529Z,12.03
2019-04-04T09:02:44.969Z,11.67
2019-04-04T09:05:48.447Z,11.67
2019-04-04T09:08:51.885Z,11.93
2019-04-04T09:11:55.368Z,11.57
2019-04-04T09:14:58.805Z,12.40
2019-04-04T09:18:02.350Z,12.47
2019-04-04T09:21:05.802Z,11.27
2019-04-04T09:24:09.296Z,12.10
2019-04-04T09:27:12.766Z,14.10
2019-04-04T09:30:17.986Z,12.37
2019-04-04T09:33:21.430Z,12.27
2019-04-04T09:36:24.893Z,11.50
2019-04-04T09:39:28.365Z,11.70
2019-04-04T09:42:31.805Z,11.47
2019-04-04T09:45:35.278Z,11.67
2019-04-04T09:48:38.727Z,12.50
2019-04-04T09:51:42.196Z,12.83
2019-04-04T09:54:45.637Z,12.50
2019-04-04T09:57:49.110Z,12.47
2019-04-04T10:00:52.551Z,13.47
2019-04-04T10:03:56.030Z,14.07
2019-04-04T10:06:59.473Z,13.50
2019-04-04T10:10:04.298Z,13.37
2019-04-04T10:13:07.733Z,14.17
2019-04-04T10:16:16.950Z,12.27
2019-04-04T10:19:20.421Z,13.33
2019-04-04T10:22:23.870Z,13.77
2019-04-04T10:25:27.341Z,13.10
2019-04-04T10:28:30.787Z,14.13
2019-04-04T10:31:34.260Z,14.60
2019-04-04T10:34:37.702Z,14.97
2019-04-04T10:37:41.182Z,16.10
2019-04-04T10:40:44.621Z,15.37
2019-04-04T10:43:48.094Z,16.37
2019-04-04T10:46:51.532Z,14.77
2019-04-04T10:49:54.990Z,15.00
2019-04-04T10:52:58.449Z,14.30
2019-04-04T10:56:01.899Z,14.87
2019-04-04T10:59:05.352Z,15.27
2019-04-04T11:02:08.797Z,14.73
2019-04-04T11:05:13.965Z,14.17
2019-04-04T11:08:52.046Z,14.77
2019-04-04T11:11:55.530Z,12.87
2019-04-04T11:14:58.972Z,13.07
2019-04-04T11:18:02.448Z,14.87
2019-04-04T11:21:05.889Z,14.97
2019-04-04T11:24:09.362Z,15.10
2019-04-04T11:27:12.833Z,15.00
2019-04-04T11:30:16.947Z,17.67
2019-04-04T11:33:20.410Z,15.53
2019-04-04T11:36:23.866Z,17.20
2019-04-04T11:39:27.332Z,17.67
2019-04-04T11:42:30.770Z,17.23
2019-04-04T11:45:34.249Z,17.83
2019-04-04T11:48:37.707Z,18.27
2019-04-04T11:51:41.165Z,17.23
2019-04-04T11:54:58.127Z,19.17
2019-04-04T11:58:01.598Z,18.73
2019-04-04T12:01:09.717Z,19.60
2019-04-04T12:04:13.162Z,19.47
2019-04-04T12:07:16.623Z,17.03
2019-04-04T12:10:20.158Z,18.43
2019-04-04T12:13:23.617Z,18.80
2019-04-04T12:16:27.092Z,18.23
2019-04-04T12:19:30.533Z,17.77
2019-04-04T12:22:33.987Z,23.07
2019-04-04T12:25:37.439Z,19.67
2019-04-04T12:28:40.902Z,17.97
2019-04-04T12:31:44.362Z,17.60
2019-04-04T12:34:47.802Z,18.43
2019-04-04T12:37:51.262Z,19.00
2019-04-04T12:40:54.706Z,18.23
2019-04-04T12:43:58.173Z,19.17
2019-04-04T12:47:01.637Z,19.17
2019-04-04T12:50:07.005Z,21.27
2019-04-04T12:53:10.447Z,20.77
2019-04-04T12:56:13.906Z,18.87
2019-04-04T12:59:17.362Z,19.67
2019-04-04T13:02:20.826Z,21.07
2019-04-04T13:05:24.336Z,19.37
2019-04-04T13:08:30.502Z,20.13
2019-04-04T13:11:32.965Z,19.67
2019-04-04T13:14:36.421Z,21.90
2019-04-04T13:17:39.874Z,19.67
2019-04-04T13:20:44.222Z,20.50
2019-04-04T13:23:47.734Z,21.00
2019-04-04T13:26:51.193Z,22.03
2019-04-04T13:29:55.518Z,22.00
2019-04-04T13:32:58.973Z,22.53
2019-04-04T13:36:02.432Z,23.57
2019-04-04T13:39:09.693Z,25.23
2019-04-04T13:42:13.156Z,24.50
2019-04-04T13:45:16.677Z,24.83
2019-04-04T13:48:20.244Z,25.67
2019-04-04T13:51:25.525Z,24.23
2019-04-04T13:54:28.913Z,23.10
2019-04-04T13:57:32.361Z,23.57
2019-04-04T14:00:35.826Z,24.53
2019-04-04T14:03:39.285Z,23.77
2019-04-04T14:06:42.721Z,23.57
2019-04-04T14:09:46.199Z,19.80
2019-04-04T14:12:49.640Z,20.07
2019-04-04T14:15:53.178Z,20.67
2019-04-04T14:18:56.648Z,17.80
2019-04-04T14:22:00.085Z,19.00
2019-04-04T14:25:04.522Z,18.37
2019-04-04T14:28:07.988Z,18.73
2019-04-04T14:31:11.450Z,18.20
2019-04-04T14:34:14.890Z,19.73
2019-04-04T14:37:18.361Z,19.63
2019-04-04T14:40:21.827Z,20.47
2019-04-04T14:43:25.269Z,19.13
2019-04-04T14:46:28.742Z,19.13
2019-04-04T14:49:32.174Z,19.20
2019-04-04T14:52:35.637Z,18.67
2019-04-04T14:55:39.110Z,18.60
2019-04-04T14:58:42.549Z,18.33
2019-04-04T15:01:46.014Z,18.13
2019-04-04T15:04:49.492Z,18.87
2019-04-04T15:07:52.989Z,18.43
2019-04-04T15:10:56.468Z,19.27
2019-04-04T15:13:59.942Z,18.87
2019-04-04T15:17:03.382Z,20.60
2019-04-04T15:20:26.335Z,19.73
2019-04-04T15:23:29.772Z,21.00
2019-04-04T15:26:33.231Z,21.73
2019-04-04T15:29:36.665Z,20.77
2019-04-04T15:32:40.138Z,21.63
2019-04-04T15:35:43.574Z,22.60
2019-04-04T15:38:47.033Z,23.97
2019-04-04T15:41:50.498Z,23.03
2019-04-04T15:44:53.941Z,25.00
2019-04-04T15:47:57.410Z,23.80
2019-04-04T15:51:00.850Z,24.10
2019-04-04T15:54:04.325Z,24.50
2019-04-04T15:57:07.838Z,23.20
2019-04-04T16:00:11.534Z,23.67
2019-04-04T16:03:14.994Z,24.13
2019-04-04T16:06:18.610Z,25.77
2019-04-04T16:09:22.067Z,24.80
2019-04-04T16:12:25.505Z,25.23
2019-04-04T16:15:28.965Z,23.83
2019-04-04T16:18:32.481Z,24.43
2019-04-04T16:21:35.931Z,24.33
2019-04-04T16:24:39.389Z,25.63
2019-04-04T16:27:42.850Z,25.63
2019-04-04T16:30:46.323Z,25.10
2019-04-04T16:34:10.664Z,24.33
2019-04-04T16:37:14.169Z,25.43
2019-04-04T16:40:18.554Z,26.17
2019-04-04T16:43:21.998Z,24.57
2019-04-04T16:46:25.457Z,24.10
2019-04-04T16:49:28.922Z,23.40
2019-04-04T16:52:32.365Z,26.00
2019-04-04T16:55:36.007Z,26.13
2019-04-04T16:58:39.437Z,26.97
2019-04-04T17:01:42.978Z,25.50
2019-04-04T17:04:46.442Z,29.07
2019-04-04T17:07:49.902Z,27.57
2019-04-04T17:10:53.370Z,29.53
2019-04-04T17:13:56.814Z,29.87
2019-04-04T17:17:00.273Z,32.23
2019-04-04T17:20:05.549Z,31.50
2019-04-04T17:23:09.015Z,33.30
2019-04-04T17:26:12.479Z,30.80
2019-04-04T17:29:15.941Z,34.23
2019-04-04T17:32:19.381Z,31.97
2019-04-04T17:35:23.342Z,32.70
2019-04-04T17:38:27.251Z,36.40
2019-04-04T17:41:31.015Z,36.47
2019-04-04T17:44:34.452Z,35.03
2019-04-04T17:47:37.974Z,36.07
2019-04-04T17:50:41.641Z,36.63
2019-04-04T17:53:45.674Z,36.10
2019-04-04T17:56:49.242Z,35.53
2019-04-04T17:59:52.732Z,35.87
2019-04-04T18:02:56.258Z,37.60
2019-04-04T18:05:59.729Z,36.30
2019-04-04T18:09:05.082Z,35.87
2019-04-04T18:12:08.533Z,37.33
2019-04-04T18:15:12.533Z,36.43
2019-04-04T18:18:15.993Z,35.77
2019-04-04T18:21:19.454Z,34.80
2019-04-04T18:24:22.893Z,37.10
2019-04-04T18:27:26.352Z,35.30
2019-04-04T18:30:29.802Z,37.10
2019-04-04T18:33:33.421Z,35.30
2019-04-04T18:36:36.942Z,34.43
2019-04-04T18:39:40.422Z,37.43
2019-04-04T18:42:53.088Z,35.37
2019-04-04T18:45:49.118Z,36.90
2019-04-04T18:48:52.582Z,35.77
2019-04-04T18:51:56.017Z,35.73
2019-04-04T18:54:59.477Z,36.40
2019-04-04T18:58:02.967Z,34.63
2019-04-04T19:01:06.392Z,34.97
2019-04-04T19:04:09.863Z,36.03
2019-04-04T19:07:13.297Z,35.27
2019-04-04T19:10:18.507Z,34.87
2019-04-04T19:13:21.997Z,36.10
2019-04-04T19:16:25.678Z,35.93
2019-04-04T19:19:29.119Z,37.80
2019-04-04T19:22:32.582Z,37.50
2019-04-04T19:25:36.038Z,35.70
2019-04-04T19:28:39.505Z,35.17
2019-04-04T19:31:42.972Z,34.87
2019-04-04T19:34:46.409Z,35.30
2019-04-04T19:37:59.537Z,36.50
2019-04-04T19:40:55.046Z,37.87
2019-04-04T19:43:58.510Z,36.40
2019-04-04T19:47:01.948Z,37.80
2019-04-04T19:50:08.717Z,36.77
2019-04-04T19:53:12.185Z,36.60
2019-04-04T19:56:15.625Z,36.83
2019-04-04T19:59:19.093Z,35.90
2019-04-04T20:02:22.617Z,37.50
2019-04-04T20:05:26.162Z,38.10
2019-04-04T20:08:29.592Z,37.20
2019-04-04T20:11:33.059Z,37.13
2019-04-04T20:14:36.512Z,37.27
2019-04-04T20:17:39.955Z,38.93
2019-04-04T20:20:43.420Z,38.97
2019-04-04T20:23:46.860Z,38.33
2019-04-04T20:26:50.326Z,40.90
2019-04-04T20:29:53.770Z,37.13
2019-04-04T20:32:57.229Z,39.23
2019-04-04T20:36:00.738Z,38.20
2019-04-04T20:39:06.218Z,40.40
2019-04-04T20:42:09.677Z,39.80
2019-04-04T20:45:13.449Z,41.50
2019-04-04T20:48:16.918Z,39.30
2019-04-04T20:51:20.382Z,39.77
2019-04-04T20:54:23.822Z,37.47
2019-04-04T20:57:27.294Z,36.90
2019-04-04T21:00:30.735Z,39.00
2019-04-04T21:03:34.198Z,39.63
2019-04-04T21:06:52.699Z,40.07
2019-04-04T21:09:56.168Z,39.30
2019-04-04T21:12:59.695Z,40.33
2019-04-04T21:16:03.132Z,40.03
2019-04-04T21:19:06.592Z,41.50
2019-04-04T21:22:10.037Z,41.83
2019-04-04T21:25:13.578Z,43.60
2019-04-04T21:28:17.045Z,42.43
2019-04-04T21:31:20.509Z,43.57
2019-04-04T21:34:23.974Z,43.83
2019-04-04T21:37:27.461Z,44.07
2019-04-04T21:40:30.933Z,43.33
2019-04-04T21:43:34.370Z,42.77
2019-04-04T21:46:37.839Z,41.33
2019-04-04T21:49:41.446Z,40.80
2019-04-04T21:52:44.902Z,39.27
2019-04-04T21:55:48.363Z,44.37
2019-04-04T21:58:51.833Z,38.50
2019-04-04T22:01:55.444Z,37.20
2019-04-04T22:04:58.892Z,36.33
2019-04-04T22:08:02.367Z,37.33
2019-04-04T22:11:05.800Z,35.53
2019-04-04T22:14:21.161Z,35.83
2019-04-04T22:17:14.460Z,35.53
2019-04-04T22:20:17.894Z,36.03
2019-04-04T22:23:21.354Z,34.73
2019-04-04T22:26:24.807Z,34.37
2019-04-04T22:29:28.282Z,34.23
2019-04-04T22:32:31.739Z,33.90
2019-04-04T22:35:35.177Z,38.00
2019-04-04T22:38:38.634Z,34.70
2019-04-04T22:41:42.101Z,31.13
2019-04-04T22:44:45.561Z,37.67
2019-04-04T22:47:49.026Z,33.37
2019-04-04T22:50:52.477Z,33.60
2019-04-04T22:53:55.922Z,31.80
2019-04-04T22:56:59.377Z,29.50
2019-04-04T23:00:03.453Z,32.70
2019-04-04T23:03:07.274Z,31.57
2019-04-04T23:06:10.733Z,30.63
2019-04-04T23:09:14.197Z,31.77
2019-04-04T23:12:17.656Z,31.93
2019-04-04T23:15:21.094Z,31.60
2019-04-04T23:18:24.562Z,30.50
2019-04-04T23:21:28.024Z,30.77
2019-04-04T23:24:31.473Z,29.60
2019-04-04T23:27:34.926Z,30.97
2019-04-04T23:30:38.378Z,31.50
2019-04-04T23:33:41.826Z,30.00
2019-04-04T23:36:45.290Z,27.27
2019-04-04T23:39:48.743Z,30.57
2019-04-04T23:42:52.209Z,32.30
2019-04-04T23:45:55.649Z,28.90
2019-04-04T23:48:59.115Z,28.97
2019-04-04T23:52:02.568Z,29.70
2019-04-04T23:55:06.571Z,29.20
2019-04-04T23:58:10.082Z,29.07
